sensor_id;sensor_type;location;lat;lon;timestamp;temperature;humidity
16968;DHT22;64862;54.398;10.126;2023-07-30T00:06:41;16.60;84.00
16968;DHT22;64862;54.398;10.126;2023-07-30T00:16:44;16.60;84.20
16968;DHT22;64862;54.398;10.126;2023-07-30T00:26:46;16.50;84.10
16968;DHT22;64862;54.398;10.126;2023-07-30T00:36:50;16.50;83.80
16968;DHT22;64862;54.398;10.126;2023-07-30T00:46:52;16.40;83.70
16968;DHT22;64862;54.398;10.126;2023-07-30T00:56:56;16.50;83.50
16968;DHT22;64862;54.398;10.126;2023-07-30T01:06:58;16.40;83.40
16968;DHT22;64862;54.398;10.126;2023-07-30T01:17:03;16.30;83.90
16968;DHT22;64862;54.398;10.126;2023-07-30T01:27:08;16.40;83.80
16968;DHT22;64862;54.398;10.126;2023-07-30T01:37:15;16.40;83.90
16968;DHT22;64862;54.398;10.126;2023-07-30T01:47:19;16.60;84.20
16968;DHT22;64862;54.398;10.126;2023-07-30T01:57:21;16.70;84.10
16968;DHT22;64862;54.398;10.126;2023-07-30T02:07:25;16.80;84.10
16968;DHT22;64862;54.398;10.126;2023-07-30T02:17:27;16.90;84.20
16968;DHT22;64862;54.398;10.126;2023-07-30T02:27:31;16.90;84.30
16968;DHT22;64862;54.398;10.126;2023-07-30T02:37:33;16.90;84.60
16968;DHT22;64862;54.398;10.126;2023-07-30T02:47:37;17.00;84.80
16968;DHT22;64862;54.398;10.126;2023-07-30T02:57:39;17.00;84.80
16968;DHT22;64862;54.398;10.126;2023-07-30T03:07:43;16.90;84.80
16968;DHT22;64862;54.398;10.126;2023-07-30T03:17:45;16.80;85.50
16968;DHT22;64862;54.398;10.126;2023-07-30T03:27:49;16.60;84.50
16968;DHT22;64862;54.398;10.126;2023-07-30T03:37:51;16.40;84.70
16968;DHT22;64862;54.398;10.126;2023-07-30T03:47:55;16.20;84.90
16968;DHT22;64862;54.398;10.126;2023-07-30T03:57:57;16.30;85.00
16968;DHT22;64862;54.398;10.126;2023-07-30T04:08:00;16.30;84.70
16968;DHT22;64862;54.398;10.126;2023-07-30T04:18:03;16.30;85.20
16968;DHT22;64862;54.398;10.126;2023-07-30T04:28:06;16.50;85.60
16968;DHT22;64862;54.398;10.126;2023-07-30T04:38:09;16.50;86.50
16968;DHT22;64862;54.398;10.126;2023-07-30T04:48:14;16.60;86.00
16968;DHT22;64862;54.398;10.126;2023-07-30T04:58:17;16.70;86.10
16968;DHT22;64862;54.398;10.126;2023-07-30T05:08:20;17.00;86.40
16968;DHT22;64862;54.398;10.126;2023-07-30T05:18:22;17.20;86.00
16968;DHT22;64862;54.398;10.126;2023-07-30T05:28:26;17.30;85.80
16968;DHT22;64862;54.398;10.126;2023-07-30T05:38:29;17.30;85.80
16968;DHT22;64862;54.398;10.126;2023-07-30T05:48:32;17.30;86.20
16968;DHT22;64862;54.398;10.126;2023-07-30T05:58:34;17.40;86.40
16968;DHT22;64862;54.398;10.126;2023-07-30T06:08:38;17.50;86.40
16968;DHT22;64862;54.398;10.126;2023-07-30T06:18:40;17.60;86.20
16968;DHT22;64862;54.398;10.126;2023-07-30T06:28:44;17.70;86.40
16968;DHT22;64862;54.398;10.126;2023-07-30T06:38:46;17.90;85.70
16968;DHT22;64862;54.398;10.126;2023-07-30T06:48:50;18.00;85.40
16968;DHT22;64862;54.398;10.126;2023-07-30T06:58:52;18.10;85.50
16968;DHT22;64862;54.398;10.126;2023-07-30T07:08:55;18.30;84.40
16968;DHT22;64862;54.398;10.126;2023-07-30T07:18:58;18.30;82.90
16968;DHT22;64862;54.398;10.126;2023-07-30T07:29:02;18.40;81.20
16968;DHT22;64862;54.398;10.126;2023-07-30T07:39:04;18.70;81.90
16968;DHT22;64862;54.398;10.126;2023-07-30T07:49:08;18.90;80.20
16968;DHT22;64862;54.398;10.126;2023-07-30T07:59:10;18.90;80.00
16968;DHT22;64862;54.398;10.126;2023-07-30T08:09:14;18.80;80.40
16968;DHT22;64862;54.398;10.126;2023-07-30T08:19:16;18.70;79.70
16968;DHT22;64862;54.398;10.126;2023-07-30T08:29:19;18.70;80.00
16968;DHT22;64862;54.398;10.126;2023-07-30T08:39:22;18.90;78.20
16968;DHT22;64862;54.398;10.126;2023-07-30T08:49:25;19.00;75.70
16968;DHT22;64862;54.398;10.126;2023-07-30T08:59:39;19.20;78.30
16968;DHT22;64862;54.398;10.126;2023-07-30T09:09:44;19.60;74.90
16968;DHT22;64862;54.398;10.126;2023-07-30T09:19:47;19.40;75.50
16968;DHT22;64862;54.398;10.126;2023-07-30T09:29:54;19.40;74.40
16968;DHT22;64862;54.398;10.126;2023-07-30T09:39:57;19.60;74.50
16968;DHT22;64862;54.398;10.126;2023-07-30T09:50:02;20.10;72.90
16968;DHT22;64862;54.398;10.126;2023-07-30T10:00:05;20.20;70.80
16968;DHT22;64862;54.398;10.126;2023-07-30T10:10:12;20.20;72.60
16968;DHT22;64862;54.398;10.126;2023-07-30T10:20:21;20.40;71.80
16968;DHT22;64862;54.398;10.126;2023-07-30T10:30:30;20.60;71.30
16968;DHT22;64862;54.398;10.126;2023-07-30T10:40:33;20.50;71.90
16968;DHT22;64862;54.398;10.126;2023-07-30T10:50:39;20.40;72.00
16968;DHT22;64862;54.398;10.126;2023-07-30T11:00:42;20.30;72.00
16968;DHT22;64862;54.398;10.126;2023-07-30T11:10:46;20.30;73.60
16968;DHT22;64862;54.398;10.126;2023-07-30T11:20:48;20.60;74.10
16968;DHT22;64862;54.398;10.126;2023-07-30T11:30:57;20.50;74.30
16968;DHT22;64862;54.398;10.126;2023-07-30T11:41:00;20.40;75.60
16968;DHT22;64862;54.398;10.126;2023-07-30T11:51:04;20.50;70.60
16968;DHT22;64862;54.398;10.126;2023-07-30T12:01:07;20.60;68.30
16968;DHT22;64862;54.398;10.126;2023-07-30T12:11:11;20.60;67.00
16968;DHT22;64862;54.398;10.126;2023-07-30T12:21:13;20.60;62.70
16968;DHT22;64862;54.398;10.126;2023-07-30T12:31:16;20.70;64.40
16968;DHT22;64862;54.398;10.126;2023-07-30T12:41:19;20.80;64.60
16968;DHT22;64862;54.398;10.126;2023-07-30T12:51:27;20.80;62.30
16968;DHT22;64862;54.398;10.126;2023-07-30T13:01:29;20.70;61.40
16968;DHT22;64862;54.398;10.126;2023-07-30T13:11:33;20.60;62.20
16968;DHT22;64862;54.398;10.126;2023-07-30T13:21:37;20.50;63.50
16968;DHT22;64862;54.398;10.126;2023-07-30T13:31:42;19.70;70.40
16968;DHT22;64862;54.398;10.126;2023-07-30T13:41:44;19.20;72.50
16968;DHT22;64862;54.398;10.126;2023-07-30T13:51:47;17.90;78.10
16968;DHT22;64862;54.398;10.126;2023-07-30T14:01:49;17.70;83.30
16968;DHT22;64862;54.398;10.126;2023-07-30T14:11:53;17.30;83.30
16968;DHT22;64862;54.398;10.126;2023-07-30T14:21:55;17.10;84.70
16968;DHT22;64862;54.398;10.126;2023-07-30T14:31:59;17.10;85.50
16968;DHT22;64862;54.398;10.126;2023-07-30T14:42:01;17.30;85.90
16968;DHT22;64862;54.398;10.126;2023-07-30T14:52:06;17.90;87.50
16968;DHT22;64862;54.398;10.126;2023-07-30T15:02:08;18.40;84.90
16968;DHT22;64862;54.398;10.126;2023-07-30T15:12:12;18.40;83.10
16968;DHT22;64862;54.398;10.126;2023-07-30T15:22:14;18.50;83.70
16968;DHT22;64862;54.398;10.126;2023-07-30T15:32:17;18.40;81.30
16968;DHT22;64862;54.398;10.126;2023-07-30T15:42:19;18.10;79.00
16968;DHT22;64862;54.398;10.126;2023-07-30T15:52:23;18.00;81.30
16968;DHT22;64862;54.398;10.126;2023-07-30T16:02:26;17.90;81.90
16968;DHT22;64862;54.398;10.126;2023-07-30T16:12:32;17.70;82.50
16968;DHT22;64862;54.398;10.126;2023-07-30T16:22:34;17.60;80.90
16968;DHT22;64862;54.398;10.126;2023-07-30T16:32:39;17.50;82.10
16968;DHT22;64862;54.398;10.126;2023-07-30T16:42:41;17.50;83.60
16968;DHT22;64862;54.398;10.126;2023-07-30T16:52:45;17.60;83.20
16968;DHT22;64862;54.398;10.126;2023-07-30T17:02:47;17.60;82.70
16968;DHT22;64862;54.398;10.126;2023-07-30T17:12:51;17.60;82.80
16968;DHT22;64862;54.398;10.126;2023-07-30T17:22:53;17.60;84.00
16968;DHT22;64862;54.398;10.126;2023-07-30T17:32:57;17.70;81.70
16968;DHT22;64862;54.398;10.126;2023-07-30T17:42:59;17.70;81.20
16968;DHT22;64862;54.398;10.126;2023-07-30T17:53:03;17.60;81.70
16968;DHT22;64862;54.398;10.126;2023-07-30T18:03:07;17.50;81.20
16968;DHT22;64862;54.398;10.126;2023-07-30T18:13:10;17.40;81.30
16968;DHT22;64862;54.398;10.126;2023-07-30T18:23:13;17.40;80.90
16968;DHT22;64862;54.398;10.126;2023-07-30T18:33:16;17.50;82.00
16968;DHT22;64862;54.398;10.126;2023-07-30T18:43:18;17.40;81.10
16968;DHT22;64862;54.398;10.126;2023-07-30T18:53:22;17.20;79.90
16968;DHT22;64862;54.398;10.126;2023-07-30T19:03:24;17.10;80.80
16968;DHT22;64862;54.398;10.126;2023-07-30T19:13:28;16.90;80.80
16968;DHT22;64862;54.398;10.126;2023-07-30T19:23:36;16.80;81.60
16968;DHT22;64862;54.398;10.126;2023-07-30T19:33:47;16.70;81.80
16968;DHT22;64862;54.398;10.126;2023-07-30T19:43:49;16.80;83.00
16968;DHT22;64862;54.398;10.126;2023-07-30T19:53:54;16.80;83.60
16968;DHT22;64862;54.398;10.126;2023-07-30T20:03:59;16.70;82.50
16968;DHT22;64862;54.398;10.126;2023-07-30T20:14:17;16.60;82.80
16968;DHT22;64862;54.398;10.126;2023-07-30T20:24:44;16.50;83.10
16968;DHT22;64862;54.398;10.126;2023-07-30T20:34:56;16.50;83.20
16968;DHT22;64862;54.398;10.126;2023-07-30T20:45:05;16.50;83.20
16968;DHT22;64862;54.398;10.126;2023-07-30T20:55:10;16.30;83.00
16968;DHT22;64862;54.398;10.126;2023-07-30T21:05:13;16.30;83.30
16968;DHT22;64862;54.398;10.126;2023-07-30T21:15:16;16.30;83.20
16968;DHT22;64862;54.398;10.126;2023-07-30T21:25:19;16.30;83.30
16968;DHT22;64862;54.398;10.126;2023-07-30T21:35:23;16.20;83.10
16968;DHT22;64862;54.398;10.126;2023-07-30T21:45:25;16.20;84.40
16968;DHT22;64862;54.398;10.126;2023-07-30T21:55:29;16.10;85.70
16968;DHT22;64862;54.398;10.126;2023-07-30T22:05:31;16.00;86.60
16968;DHT22;64862;54.398;10.126;2023-07-30T22:15:34;16.10;86.90
16968;DHT22;64862;54.398;10.126;2023-07-30T22:25:37;16.00;86.40
16968;DHT22;64862;54.398;10.126;2023-07-30T22:35:40;15.90;86.30
16968;DHT22;64862;54.398;10.126;2023-07-30T22:45:42;15.80;85.70
16968;DHT22;64862;54.398;10.126;2023-07-30T22:55:46;15.70;85.60
16968;DHT22;64862;54.398;10.126;2023-07-30T23:05:48;15.70;86.30
16968;DHT22;64862;54.398;10.126;2023-07-30T23:15:51;15.60;86.00
16968;DHT22;64862;54.398;10.126;2023-07-30T23:25:53;15.60;86.30
16968;DHT22;64862;54.398;10.126;2023-07-30T23:35:57;15.70;86.70
16968;DHT22;64862;54.398;10.126;2023-07-30T23:46:00;15.70;86.20
16968;DHT22;64862;54.398;10.126;2023-07-30T23:56:04;15.80;86.10
